Time;durP1;ratioP1;P1;durP2;ratioP2;P2;SDS_P1;SDS_P2;PMS_P1;PMS_P2;Temp;Humidity;BMP_temperature;BMP_pressure;BME280_temperature;BME280_humidity;BME280_pressure;Samples;Min_cycle;Max_cycle;Signal;HPM_P1;HPM_P2
2022/01/27 00:00:38;;;;;;;24.58;16.30;;;;;;;;;;5020020;28;20030;-60
2022/01/27 00:05:34;;;;;;;24.73;15.75;;;;;;;;;;5022207;28;20042;-60
2022/01/27 00:11:12;;;;;;;23.65;15.05;;;;;;;;;;5022921;28;20434;-60
2022/01/27 00:13:23;;;;;;;29.02;14.40;;;;;;;;;;5019478;28;20045;-59
2022/01/27 00:15:58;;;;;;;;;;;;;;;;;;5014661;28;20025;-60
2022/01/27 00:18:24;;;;;;;26.85;15.15;;;;;;;;;;5023082;28;19924;-60
2022/01/27 00:20:50;;;;;;;28.10;15.80;;;;;;;;;;5018360;28;20038;-60
2022/01/27 00:23:16;;;;;;;23.25;15.77;;;;;;;;;;5022014;28;20037;-60
2022/01/27 00:25:43;;;;;;;24.30;15.45;;;;;;;;;;5019614;28;20163;-60
2022/01/27 00:28:09;;;;;;;22.50;15.15;;;;;;;;;;5018990;28;20463;-60
2022/01/27 00:30:37;;;;;;;25.13;16.35;;;;;;;;;;5021713;28;20087;-60
2022/01/27 00:33:07;;;;;;;28.00;16.90;;;;;;;;;;5024705;28;20068;-60
2022/01/27 00:35:34;;;;;;;28.10;17.02;;;;;;;;;;5020554;28;20034;-60
2022/01/27 00:38:00;;;;;;;29.77;17.88;;;;;;;;;;5023306;28;20126;-60
2022/01/27 00:40:27;;;;;;;31.05;17.83;;;;;;;;;;5024732;28;20150;-60
2022/01/27 00:42:53;;;;;;;27.23;16.40;;;;;;;;;;5023172;28;20034;-60
2022/01/27 00:45:19;;;;;;;24.45;16.38;;;;;;;;;;5017964;28;20042;-60
2022/01/27 00:47:45;;;;;;;26.55;16.98;;;;;;;;;;5017318;28;20026;-59
2022/01/27 00:50:11;;;;;;;24.95;16.83;;;;;;;;;;5021438;28;20489;-60
2022/01/27 00:52:45;;;;;;;30.00;17.73;;;;;;;;;;5024790;28;20025;-60
2022/01/27 00:55:12;;;;;;;24.83;17.55;;;;;;;;;;5020635;28;20049;-60
2022/01/27 01:00:29;;;;;;;29.40;17.30;;;;;;;;;;5023543;28;20036;-60
2022/01/27 01:03:01;;;;;;;25.42;16.90;;;;;;;;;;5018533;28;20033;-60
2022/01/27 01:05:55;;;;;;;34.13;17.58;;;;;;;;;;5020074;28;20033;-60
2022/01/27 01:16:24;;;;;;;27.85;18.20;;;;;;;;;;5018417;28;20044;-60
2022/01/27 01:19:21;;;;;;;24.75;16.73;;;;;;;;;;5015668;28;20514;-60
2022/01/27 01:30:33;;;;;;;29.00;17.05;;;;;;;;;;5021720;28;20361;-61
2022/01/27 01:32:59;;;;;;;35.10;20.50;;;;;;;;;;5023331;28;20085;-61
2022/01/27 01:35:36;;;;;;;31.55;20.83;;;;;;;;;;5021270;28;20044;-60
2022/01/27 01:38:02;;;;;;;40.92;20.73;;;;;;;;;;5024582;28;20536;-60
2022/01/27 01:40:28;;;;;;;29.30;18.23;;;;;;;;;;5020258;28;20024;-61
2022/01/27 01:42:54;;;;;;;28.05;16.42;;;;;;;;;;5018829;28;20030;-60
2022/01/27 01:45:21;;;;;;;27.27;17.42;;;;;;;;;;5023889;28;20494;-60
2022/01/27 01:47:49;;;;;;;26.13;17.45;;;;;;;;;;5023422;28;20492;-60
2022/01/27 01:50:15;;;;;;;29.17;17.33;;;;;;;;;;5015113;28;20037;-60
2022/01/27 01:52:43;;;;;;;25.40;16.95;;;;;;;;;;5019159;28;20021;-60
2022/01/27 01:55:11;;;;;;;32.17;17.05;;;;;;;;;;5020180;28;20497;-60
2022/01/27 01:57:37;;;;;;;24.52;16.67;;;;;;;;;;5020623;28;20030;-60
2022/01/27 02:00:06;;;;;;;26.23;17.58;;;;;;;;;;5025138;28;20022;-60
2022/01/27 02:02:34;;;;;;;26.08;17.92;;;;;;;;;;5026219;28;20061;-59
2022/01/27 02:05:00;;;;;;;24.05;16.63;;;;;;;;;;5019447;28;20131;-60
2022/01/27 02:18:13;;;;;;;30.88;16.73;;;;;;;;;;5022386;28;20026;-60
2022/01/27 02:20:40;;;;;;;26.30;17.25;;;;;;;;;;5026005;28;20107;-60
2022/01/27 02:23:08;;;;;;;27.50;16.92;;;;;;;;;;5027404;28;20076;-60
2022/01/27 02:25:35;;;;;;;26.08;16.17;;;;;;;;;;5024956;28;20036;-60
2022/01/27 02:28:00;;;;;;;25.60;16.15;;;;;;;;;;5019200;28;20088;-60
2022/01/27 02:30:27;;;;;;;21.83;15.32;;;;;;;;;;5021464;28;20083;-60
2022/01/27 02:32:53;;;;;;;23.38;15.93;;;;;;;;;;5022138;28;20120;-60
2022/01/27 02:35:25;;;;;;;24.35;16.10;;;;;;;;;;5023983;28;20080;-60
2022/01/27 02:37:52;;;;;;;22.75;16.08;;;;;;;;;;5024852;28;20022;-60
2022/01/27 02:40:42;;;;;;;20.42;15.43;;;;;;;;;;5024517;28;20049;-60
2022/01/27 02:43:09;;;;;;;23.65;15.88;;;;;;;;;;5026201;28;20104;-60
2022/01/27 02:45:58;;;;;;;23.75;15.32;;;;;;;;;;5027667;28;20041;-60
2022/01/27 02:48:24;;;;;;;28.67;15.00;;;;;;;;;;5025959;28;20038;-60
2022/01/27 02:50:50;;;;;;;20.35;13.77;;;;;;;;;;5023126;28;20052;-60
2022/01/27 02:53:15;;;;;;;28.30;16.63;;;;;;;;;;5023327;28;20037;-60
2022/01/27 02:55:42;;;;;;;22.77;15.30;;;;;;;;;;5026286;28;20053;-60
2022/01/27 02:58:10;;;;;;;24.35;15.32;;;;;;;;;;5024818;28;20026;-61
2022/01/27 03:00:35;;;;;;;21.95;14.82;;;;;;;;;;5027559;28;20045;-59
2022/01/27 03:03:01;;;;;;;21.95;14.98;;;;;;;;;;5024931;28;20025;-60
2022/01/27 03:05:27;;;;;;;24.08;15.18;;;;;;;;;;5023735;28;20037;-60
2022/01/27 03:07:53;;;;;;;22.15;14.95;;;;;;;;;;5019297;28;20041;-60
2022/01/27 03:10:20;;;;;;;23.42;16.15;;;;;;;;;;5022597;28;20401;-60
2022/01/27 03:12:49;;;;;;;23.42;14.63;;;;;;;;;;5025928;28;20037;-60
2022/01/27 03:15:14;;;;;;;23.77;15.30;;;;;;;;;;5020649;28;20042;-60
2022/01/27 03:17:40;;;;;;;24.38;15.88;;;;;;;;;;5017732;28;20033;-60
2022/01/27 03:20:10;;;;;;;24.65;16.08;;;;;;;;;;5025624;28;20045;-60
2022/01/27 03:22:36;;;;;;;22.20;15.07;;;;;;;;;;5022160;28;20034;-59
2022/01/27 03:25:02;;;;;;;22.35;15.57;;;;;;;;;;5024704;28;20076;-60
2022/01/27 03:27:29;;;;;;;29.80;15.02;;;;;;;;;;5021505;28;20037;-60
2022/01/27 03:29:54;;;;;;;28.10;15.77;;;;;;;;;;5021831;28;20363;-60
2022/01/27 03:32:20;;;;;;;27.85;15.73;;;;;;;;;;5055862;28;20029;-60
2022/01/27 03:34:46;;;;;;;23.40;15.40;;;;;;;;;;5024081;28;20506;-60
2022/01/27 03:37:13;;;;;;;26.02;16.05;;;;;;;;;;5020295;28;20436;-60
2022/01/27 03:39:40;;;;;;;24.88;14.93;;;;;;;;;;5020789;28;20029;-60
2022/01/27 03:42:07;;;;;;;24.65;15.40;;;;;;;;;;5023748;28;20111;-60
2022/01/27 03:44:33;;;;;;;23.55;14.90;;;;;;;;;;5022469;28;20033;-60
2022/01/27 03:46:59;;;;;;;31.52;17.08;;;;;;;;;;5023321;28;20052;-60
2022/01/27 03:49:26;;;;;;;29.92;18.58;;;;;;;;;;5023614;28;20072;-60
2022/01/27 03:51:52;;;;;;;24.02;15.10;;;;;;;;;;5024266;28;20560;-60
2022/01/27 03:54:18;;;;;;;24.25;15.63;;;;;;;;;;5025232;28;20040;-60
2022/01/27 03:56:44;;;;;;;25.23;16.45;;;;;;;;;;5022492;28;20392;-60
2022/01/27 03:59:10;;;;;;;28.00;16.85;;;;;;;;;;5021792;28;20084;-60
2022/01/27 04:01:36;;;;;;;31.02;17.15;;;;;;;;;;5022927;28;20466;-60
2022/01/27 04:04:03;;;;;;;27.00;15.70;;;;;;;;;;5020096;28;20084;-60
2022/01/27 04:06:34;;;;;;;35.63;18.50;;;;;;;;;;5020594;28;20127;-60
2022/01/27 04:09:02;;;;;;;30.40;18.23;;;;;;;;;;5020540;28;20059;-61
2022/01/27 04:11:28;;;;;;;27.95;17.20;;;;;;;;;;5021768;28;20033;-60
2022/01/27 04:13:54;;;;;;;31.25;18.48;;;;;;;;;;5019727;28;20041;-60
2022/01/27 04:16:20;;;;;;;31.48;19.05;;;;;;;;;;5023456;28;20056;-60
2022/01/27 04:18:46;;;;;;;33.47;19.17;;;;;;;;;;5018448;28;20040;-60
2022/01/27 04:21:12;;;;;;;30.60;19.05;;;;;;;;;;5016653;28;20048;-60
2022/01/27 04:23:38;;;;;;;27.25;19.00;;;;;;;;;;5020261;28;20065;-60
2022/01/27 04:26:05;;;;;;;29.67;18.83;;;;;;;;;;5022673;28;20061;-60
2022/01/27 04:28:34;;;;;;;27.02;19.08;;;;;;;;;;5017970;28;20165;-60
2022/01/27 04:31:02;;;;;;;29.92;17.80;;;;;;;;;;5016315;28;20081;-60
2022/01/27 04:33:31;;;;;;;26.42;15.60;;;;;;;;;;5024601;28;20391;-60
2022/01/27 04:36:00;;;;;;;28.70;17.40;;;;;;;;;;5025701;28;20470;-60
2022/01/27 04:39:14;;;;;;;24.80;16.83;;;;;;;;;;5026337;28;20072;-60
2022/01/27 04:41:22;;;;;;;23.13;15.80;;;;;;;;;;5018497;28;20593;-59
2022/01/27 04:44:41;;;;;;;21.08;14.60;;;;;;;;;;5023051;28;20032;-60
2022/01/27 04:49:12;;;;;;;23.98;15.57;;;;;;;;;;5017972;28;20059;-60
2022/01/27 04:51:38;;;;;;;21.58;14.10;;;;;;;;;;5026384;28;20040;-60
2022/01/27 04:54:14;;;;;;;20.13;13.65;;;;;;;;;;5021118;28;20034;-60
2022/01/27 04:56:41;;;;;;;25.92;14.25;;;;;;;;;;5023850;28;20038;-60
2022/01/27 04:59:15;;;;;;;23.15;13.55;;;;;;;;;;5020603;28;20060;-60
2022/01/27 05:01:50;;;;;;;18.40;12.40;;;;;;;;;;5026665;28;20041;-60
2022/01/27 05:04:19;;;;;;;23.08;13.88;;;;;;;;;;5022137;28;20049;-60
2022/01/27 05:06:45;;;;;;;22.15;14.25;;;;;;;;;;5018390;28;20049;-60
2022/01/27 05:09:10;;;;;;;18.77;13.57;;;;;;;;;;5018905;28;20030;-60
2022/01/27 05:11:48;;;;;;;20.77;13.75;;;;;;;;;;5023575;28;20037;-60
2022/01/27 05:14:21;;;;;;;18.08;13.70;;;;;;;;;;5020564;28;20590;-60
2022/01/27 05:16:47;;;;;;;23.45;14.10;;;;;;;;;;5020451;28;20038;-60
2022/01/27 05:19:12;;;;;;;19.63;14.00;;;;;;;;;;5019435;28;20048;-60
2022/01/27 05:21:38;;;;;;;18.70;13.45;;;;;;;;;;5018488;28;20046;-60
2022/01/27 05:24:04;;;;;;;22.92;13.57;;;;;;;;;;5019409;28;20095;-60
2022/01/27 05:26:32;;;;;;;21.70;13.77;;;;;;;;;;5017582;28;20030;-60
2022/01/27 05:28:57;;;;;;;20.50;13.95;;;;;;;;;;5018661;28;20034;-60
2022/01/27 05:31:23;;;;;;;18.17;13.43;;;;;;;;;;5019058;28;20090;-61
2022/01/27 05:33:49;;;;;;;24.30;14.13;;;;;;;;;;5026555;28;20042;-59
2022/01/27 05:36:14;;;;;;;18.33;13.50;;;;;;;;;;5025898;28;20526;-60
2022/01/27 05:38:41;;;;;;;19.27;13.73;;;;;;;;;;5027558;28;20041;-60
2022/01/27 05:41:07;;;;;;;20.98;14.27;;;;;;;;;;5024062;28;20044;-60
2022/01/27 05:43:33;;;;;;;18.83;13.50;;;;;;;;;;5027844;28;20381;-60
2022/01/27 05:45:59;;;;;;;17.75;13.13;;;;;;;;;;5028016;28;20183;-60
2022/01/27 05:48:25;;;;;;;24.05;13.90;;;;;;;;;;5030196;28;20045;-60
2022/01/27 05:50:51;;;;;;;17.85;12.88;;;;;;;;;;5022537;28;20022;-60
2022/01/27 05:53:17;;;;;;;18.88;13.43;;;;;;;;;;5024478;28;20025;-60
2022/01/27 05:55:43;;;;;;;19.73;12.88;;;;;;;;;;5029095;28;20051;-60
2022/01/27 05:58:08;;;;;;;17.45;12.38;;;;;;;;;;5022352;28;20041;-59
2022/01/27 06:00:34;;;;;;;19.92;13.18;;;;;;;;;;5022820;28;20437;-60
2022/01/27 06:03:00;;;;;;;18.02;12.45;;;;;;;;;;5024915;28;20052;-60
2022/01/27 06:05:29;;;;;;;17.27;11.70;;;;;;;;;;5023931;28;20037;-60
2022/01/27 06:07:54;;;;;;;16.35;11.90;;;;;;;;;;5022276;28;20060;-59
2022/01/27 06:10:20;;;;;;;18.58;13.52;;;;;;;;;;5024083;28;20461;-60
2022/01/27 06:12:56;;;;;;;16.05;12.38;;;;;;;;;;5021453;28;20524;-60
2022/01/27 06:15:23;;;;;;;16.05;12.15;;;;;;;;;;5028886;28;20048;-59
2022/01/27 06:17:49;;;;;;;15.90;11.82;;;;;;;;;;5024949;28;20080;-60
2022/01/27 06:20:17;;;;;;;16.77;12.50;;;;;;;;;;5019100;28;20041;-60
2022/01/27 06:22:42;;;;;;;17.02;12.27;;;;;;;;;;5024488;28;20108;-60
2022/01/27 06:25:10;;;;;;;16.23;12.00;;;;;;;;;;5022313;28;20132;-55
2022/01/27 06:27:36;;;;;;;18.45;12.60;;;;;;;;;;5027734;28;20045;-60
2022/01/27 06:30:05;;;;;;;18.08;12.85;;;;;;;;;;5021942;28;20034;-60
2022/01/27 06:32:33;;;;;;;15.18;12.60;;;;;;;;;;5021519;28;20478;-60
2022/01/27 06:34:58;;;;;;;19.77;13.18;;;;;;;;;;5025538;28;20045;-60
2022/01/27 06:37:24;;;;;;;19.13;13.95;;;;;;;;;;5027398;28;20040;-60
2022/01/27 06:39:52;;;;;;;19.05;13.75;;;;;;;;;;5018000;28;20048;-60
2022/01/27 06:42:19;;;;;;;20.02;12.88;;;;;;;;;;5024371;28;20042;-60
2022/01/27 06:44:44;;;;;;;19.75;13.85;;;;;;;;;;5019023;28;20068;-59
2022/01/27 06:47:10;;;;;;;22.10;15.50;;;;;;;;;;5022682;28;20068;-60
2022/01/27 06:49:36;;;;;;;19.58;14.85;;;;;;;;;;5024105;28;20048;-60
2022/01/27 06:52:02;;;;;;;20.33;16.17;;;;;;;;;;5026937;28;20030;-60
2022/01/27 06:54:28;;;;;;;29.13;18.73;;;;;;;;;;5025605;28;20038;-60
2022/01/27 06:56:54;;;;;;;27.60;19.10;;;;;;;;;;5025144;28;20088;-60
2022/01/27 06:59:20;;;;;;;24.17;17.17;;;;;;;;;;5021949;28;20042;-60
2022/01/27 07:01:46;;;;;;;29.05;19.30;;;;;;;;;;5022603;28;20036;-60
2022/01/27 07:04:12;;;;;;;33.22;22.63;;;;;;;;;;5017761;28;20068;-60
2022/01/27 07:06:39;;;;;;;34.03;19.45;;;;;;;;;;5023223;28;20030;-60
2022/01/27 07:09:05;;;;;;;26.02;18.10;;;;;;;;;;5021458;28;20030;-60
2022/01/27 07:11:31;;;;;;;28.80;18.92;;;;;;;;;;5019219;28;20040;-60
2022/01/27 07:13:57;;;;;;;30.42;19.73;;;;;;;;;;5026130;28;20452;-60
2022/01/27 07:16:23;;;;;;;33.30;24.65;;;;;;;;;;5019199;28;20119;-60
2022/01/27 07:18:48;;;;;;;34.78;22.88;;;;;;;;;;5026874;28;20112;-60
2022/01/27 07:21:14;;;;;;;32.78;20.20;;;;;;;;;;5026784;28;20042;-60
2022/01/27 07:23:39;;;;;;;28.33;17.67;;;;;;;;;;5026218;28;20502;-60
2022/01/27 07:26:05;;;;;;;25.30;16.02;;;;;;;;;;5022097;28;20034;-61
2022/01/27 07:28:32;;;;;;;20.38;14.02;;;;;;;;;;5025538;28;20433;-61
2022/01/27 07:30:58;;;;;;;22.00;13.45;;;;;;;;;;5020876;28;20072;-61
2022/01/27 07:33:23;;;;;;;18.15;13.18;;;;;;;;;;5021255;28;20033;-60
2022/01/27 07:35:50;;;;;;;14.75;12.40;;;;;;;;;;5024687;28;20026;-61
2022/01/27 07:38:16;;;;;;;19.95;13.40;;;;;;;;;;5024099;28;20026;-60
2022/01/27 07:40:41;;;;;;;24.95;14.13;;;;;;;;;;5026227;28;20040;-60
2022/01/27 07:43:10;;;;;;;19.05;13.82;;;;;;;;;;5018884;28;20033;-60
2022/01/27 07:45:37;;;;;;;25.80;13.52;;;;;;;;;;5022813;28;20537;-60
2022/01/27 07:48:03;;;;;;;20.90;14.15;;;;;;;;;;5020047;28;20030;-60
2022/01/27 07:50:30;;;;;;;21.42;14.02;;;;;;;;;;5022584;28;20117;-60
2022/01/27 07:52:56;;;;;;;19.23;12.70;;;;;;;;;;5020902;28;20057;-60
2022/01/27 07:55:22;;;;;;;13.95;11.35;;;;;;;;;;5024486;28;20080;-61
2022/01/27 07:57:48;;;;;;;13.18;10.95;;;;;;;;;;5022024;28;20556;-60
2022/01/27 08:00:15;;;;;;;19.13;10.93;;;;;;;;;;5024335;28;20148;-60
2022/01/27 08:02:41;;;;;;;15.70;10.77;;;;;;;;;;5022491;28;20033;-61
2022/01/27 08:05:07;;;;;;;18.10;11.57;;;;;;;;;;5021578;28;20033;-60
2022/01/27 08:07:33;;;;;;;14.85;10.73;;;;;;;;;;5025492;28;20473;-61
2022/01/27 08:09:59;;;;;;;12.38;10.88;;;;;;;;;;5019821;28;20026;-60
2022/01/27 08:12:25;;;;;;;13.90;10.48;;;;;;;;;;5027706;28;20105;-60
2022/01/27 08:14:51;;;;;;;16.25;10.35;;;;;;;;;;5025535;28;20053;-61
2022/01/27 08:17:17;;;;;;;14.15;10.18;;;;;;;;;;5026000;28;20037;-59
2022/01/27 08:19:43;;;;;;;13.90;10.25;;;;;;;;;;5025300;28;20051;-60
2022/01/27 08:22:10;;;;;;;18.23;10.00;;;;;;;;;;5021759;28;20057;-60
2022/01/27 08:24:40;;;;;;;17.50;11.23;;;;;;;;;;5020394;28;20116;-60
2022/01/27 08:27:08;;;;;;;21.25;11.23;;;;;;;;;;5023680;28;20041;-59
2022/01/27 08:29:41;;;;;;;10.82;9.52;;;;;;;;;;5022436;28;20417;-60
2022/01/27 08:32:10;;;;;;;15.45;10.55;;;;;;;;;;5020661;28;20026;-59
2022/01/27 08:34:39;;;;;;;12.38;9.40;;;;;;;;;;5022389;28;20029;-59
2022/01/27 08:37:18;;;;;;;13.65;9.98;;;;;;;;;;5016017;28;20032;-60
2022/01/27 08:39:46;;;;;;;16.27;10.10;;;;;;;;;;5026456;28;20061;-60
2022/01/27 08:42:12;;;;;;;14.27;9.70;;;;;;;;;;5020104;28;20032;-60
2022/01/27 08:44:38;;;;;;;14.65;10.32;;;;;;;;;;5021916;28;20037;-59
2022/01/27 08:47:05;;;;;;;18.33;11.80;;;;;;;;;;5022180;28;20155;-60
2022/01/27 08:49:31;;;;;;;26.00;13.32;;;;;;;;;;5019352;28;20041;-60
2022/01/27 08:51:57;;;;;;;18.55;12.02;;;;;;;;;;5021959;28;20034;-59
2022/01/27 08:54:24;;;;;;;30.10;13.57;;;;;;;;;;5022514;28;20104;-61
2022/01/27 08:56:50;;;;;;;18.60;14.25;;;;;;;;;;5051333;28;20072;-60
2022/01/27 08:59:16;;;;;;;24.08;13.73;;;;;;;;;;5020207;28;20421;-60
2022/01/27 09:01:43;;;;;;;22.90;15.02;;;;;;;;;;5026524;28;20041;-60
2022/01/27 09:04:09;;;;;;;21.85;15.20;;;;;;;;;;5024050;28;20040;-60
2022/01/27 09:06:35;;;;;;;30.08;14.98;;;;;;;;;;5023513;28;20037;-59
2022/01/27 09:09:02;;;;;;;31.65;15.32;;;;;;;;;;5019215;28;20030;-60
2022/01/27 09:11:30;;;;;;;25.10;16.55;;;;;;;;;;5022459;28;20041;-60
2022/01/27 09:13:58;;;;;;;26.65;16.50;;;;;;;;;;5020057;28;20033;-59
2022/01/27 09:16:27;;;;;;;25.95;17.38;;;;;;;;;;5022804;28;20515;-59
2022/01/27 09:18:54;;;;;;;23.65;18.33;;;;;;;;;;5019314;28;20036;-60
2022/01/27 09:21:27;;;;;;;30.10;19.08;;;;;;;;;;5024859;28;20142;-59
2022/01/27 09:23:54;;;;;;;23.67;15.77;;;;;;;;;;5023015;28;20033;-59
2022/01/27 09:27:06;;;;;;;28.00;16.70;;;;;;;;;;5021297;28;20041;-60
2022/01/27 09:29:08;;;;;;;29.67;18.42;;;;;;;;;;5025266;28;20037;-59
2022/01/27 09:31:35;;;;;;;31.98;18.92;;;;;;;;;;5021969;28;20116;-60
2022/01/27 09:34:01;;;;;;;26.42;18.83;;;;;;;;;;5019691;28;20449;-59
2022/01/27 09:36:27;;;;;;;26.90;18.73;;;;;;;;;;5021712;28;20057;-60
2022/01/27 09:38:53;;;;;;;26.55;18.63;;;;;;;;;;5024012;28;20505;-60
2022/01/27 09:41:20;;;;;;;26.23;18.67;;;;;;;;;;5021359;28;20048;-60
2022/01/27 09:43:52;;;;;;;29.42;18.85;;;;;;;;;;5022476;28;20030;-60
2022/01/27 09:46:24;;;;;;;26.88;19.50;;;;;;;;;;5019797;28;20065;-60
2022/01/27 09:48:52;;;;;;;27.55;18.92;;;;;;;;;;5017538;28;20435;-60
2022/01/27 09:51:38;;;;;;;29.27;18.25;;;;;;;;;;5018653;28;20069;-60
2022/01/27 09:54:05;;;;;;;41.55;18.83;;;;;;;;;;5022452;28;20455;-60
2022/01/27 09:56:30;;;;;;;31.92;19.83;;;;;;;;;;5020246;28;20141;-60
2022/01/27 09:58:56;;;;;;;30.20;19.20;;;;;;;;;;5016204;28;20778;-60
2022/01/27 10:01:22;;;;;;;33.85;21.05;;;;;;;;;;5024845;28;20033;-60
2022/01/27 10:03:53;;;;;;;29.45;20.67;;;;;;;;;;5017328;28;20036;-60
2022/01/27 10:06:21;;;;;;;24.50;17.92;;;;;;;;;;5022645;28;20044;-59
2022/01/27 10:09:10;;;;;;;31.77;18.52;;;;;;;;;;5023277;28;20148;-59
2022/01/27 10:11:35;;;;;;;33.90;20.27;;;;;;;;;;5024487;28;20095;-60
2022/01/27 10:14:21;;;;;;;34.10;19.50;;;;;;;;;;5022702;28;20374;-60
2022/01/27 10:16:49;;;;;;;39.85;20.65;;;;;;;;;;5026161;28;20072;-60
2022/01/27 10:19:15;;;;;;;36.20;22.83;;;;;;;;;;5022625;28;20088;-60
2022/01/27 10:21:41;;;;;;;36.95;22.35;;;;;;;;;;5020375;28;20046;-60
2022/01/27 10:24:26;;;;;;;35.38;21.42;;;;;;;;;;5021961;28;20483;-60
2022/01/27 10:27:18;;;;;;;35.88;22.30;;;;;;;;;;5024065;28;20048;-60
2022/01/27 10:30:02;;;;;;;45.40;25.58;;;;;;;;;;5021008;28;20037;-60
2022/01/27 10:32:59;;;;;;;57.13;29.70;;;;;;;;;;5024091;28;20466;-59
2022/01/27 10:35:27;;;;;;;57.50;31.80;;;;;;;;;;5026050;28;20037;-60
2022/01/27 10:38:02;;;;;;;83.68;44.33;;;;;;;;;;5020302;28;20034;-60
2022/01/27 10:40:34;;;;;;;78.07;44.15;;;;;;;;;;5025908;28;20033;-60
2022/01/27 10:43:05;;;;;;;59.55;34.63;;;;;;;;;;5020685;28;20034;-60
2022/01/27 10:45:31;;;;;;;45.30;29.83;;;;;;;;;;5025442;28;20037;-60
2022/01/27 10:48:32;;;;;;;50.97;31.08;;;;;;;;;;5023833;28;20454;-60
2022/01/27 10:53:45;;;;;;;52.38;31.05;;;;;;;;;;4998871;28;20041;-60
2022/01/27 10:56:16;;;;;;;48.58;31.27;;;;;;;;;;5000925;28;20041;-60
2022/01/27 10:58:43;;;;;;;53.95;31.55;;;;;;;;;;5000516;28;20048;-59
2022/01/27 11:01:09;;;;;;;54.92;30.70;;;;;;;;;;4994067;28;20073;-60
2022/01/27 11:03:35;;;;;;;60.55;32.95;;;;;;;;;;5003730;28;20061;-60
2022/01/27 11:06:10;;;;;;;48.05;29.27;;;;;;;;;;4997641;28;20034;-59
2022/01/27 11:08:37;;;;;;;49.17;31.55;;;;;;;;;;5003124;28;20076;-60
2022/01/27 11:11:05;;;;;;;37.60;27.30;;;;;;;;;;5002650;28;20387;-60
2022/01/27 11:13:33;;;;;;;47.50;27.73;;;;;;;;;;5001103;28;20469;-60
2022/01/27 11:15:59;;;;;;;49.15;28.10;;;;;;;;;;4994672;28;20089;-60
2022/01/27 11:18:27;;;;;;;48.40;30.00;;;;;;;;;;5001422;28;20045;-60
2022/01/27 11:26:12;;;;;;;45.88;30.10;;;;;;;;;;5005497;28;20288;-59
2022/01/27 11:28:42;;;;;;;44.08;29.90;;;;;;;;;;5023889;28;20040;-60
2022/01/27 11:31:13;;;;;;;38.92;28.38;;;;;;;;;;5022704;28;20489;-59
2022/01/27 11:33:43;;;;;;;43.53;30.88;;;;;;;;;;5021836;28;20127;-59
2022/01/27 11:36:15;;;;;;;51.58;33.33;;;;;;;;;;5021887;28;20059;-59
2022/01/27 11:38:45;;;;;;;49.88;33.22;;;;;;;;;;5021587;28;20041;-60
2022/01/27 11:41:37;;;;;;;47.92;32.35;;;;;;;;;;5023349;28;20505;-59
2022/01/27 11:44:23;;;;;;;66.32;36.92;;;;;;;;;;5021697;28;20390;-59
2022/01/27 11:47:08;;;;;;;64.07;38.33;;;;;;;;;;5022715;28;20083;-59
2022/01/27 11:52:31;;;;;;;44.45;29.85;;;;;;;;;;5025150;28;20045;-59
2022/01/27 11:55:18;;;;;;;42.95;29.45;;;;;;;;;;5025890;28;20033;-60
2022/01/27 11:57:45;;;;;;;42.95;28.27;;;;;;;;;;5016373;28;20034;-60
2022/01/27 12:00:22;;;;;;;38.88;28.45;;;;;;;;;;5027007;28;20104;-59
2022/01/27 12:02:57;;;;;;;41.63;27.55;;;;;;;;;;5021882;28;20556;-59
2022/01/27 12:05:23;;;;;;;48.72;31.45;;;;;;;;;;5024203;28;20107;-60
2022/01/27 12:08:20;;;;;;;36.47;25.80;;;;;;;;;;5023558;28;20496;-59
2022/01/27 12:11:03;;;;;;;41.35;26.85;;;;;;;;;;5019330;28;20041;-60
2022/01/27 12:13:32;;;;;;;40.85;27.17;;;;;;;;;;5017101;28;20421;-59
2022/01/27 12:19:09;;;;;;;34.97;22.90;;;;;;;;;;5023230;28;20052;-60
2022/01/27 12:21:38;;;;;;;38.15;23.50;;;;;;;;;;5022994;28;20148;-60
2022/01/27 12:24:13;;;;;;;37.92;23.80;;;;;;;;;;5020983;28;20029;-59
2022/01/27 12:27:09;;;;;;;36.58;26.15;;;;;;;;;;5022253;28;20033;-59
2022/01/27 12:29:45;;;;;;;42.88;25.60;;;;;;;;;;5024980;28;20045;-59
2022/01/27 12:32:17;;;;;;;34.00;22.70;;;;;;;;;;5020507;28;20029;-59
2022/01/27 12:35:00;;;;;;;34.03;21.38;;;;;;;;;;5011604;28;22994;-59
2022/01/27 12:37:35;;;;;;;45.83;21.08;;;;;;;;;;5015420;28;20367;-60
2022/01/27 12:40:07;;;;;;;33.55;21.50;;;;;;;;;;5016352;28;20052;-59
2022/01/27 12:42:38;;;;;;;29.73;21.85;;;;;;;;;;5025622;28;20034;-59
2022/01/27 12:45:06;;;;;;;40.17;21.48;;;;;;;;;;5020761;28;20037;-59
2022/01/27 12:47:33;;;;;;;29.10;18.85;;;;;;;;;;5020590;28;20037;-59
2022/01/27 12:50:10;;;;;;;28.15;18.50;;;;;;;;;;5021204;28;20029;-59
2022/01/27 12:52:42;;;;;;;41.15;17.35;;;;;;;;;;5020820;28;20029;-59
2022/01/27 12:55:16;;;;;;;27.75;19.98;;;;;;;;;;5027405;28;20240;-59
2022/01/27 12:57:42;;;;;;;28.40;19.65;;;;;;;;;;5017955;28;20193;-59
2022/01/27 13:00:11;;;;;;;29.10;18.17;;;;;;;;;;5018162;28;20030;-59
2022/01/27 13:02:38;;;;;;;30.23;17.85;;;;;;;;;;5020476;28;20083;-58
2022/01/27 13:05:06;;;;;;;30.13;19.67;;;;;;;;;;5024139;28;20051;-60
2022/01/27 13:07:36;;;;;;;28.23;17.85;;;;;;;;;;5021140;28;20036;-60
2022/01/27 13:10:12;;;;;;;29.65;19.45;;;;;;;;;;5021542;28;20034;-60
2022/01/27 13:12:48;;;;;;;34.47;19.60;;;;;;;;;;5013490;28;20022;-60
2022/01/27 13:15:20;;;;;;;34.47;16.92;;;;;;;;;;5017459;28;20079;-60
2022/01/27 13:20:23;;;;;;;25.90;16.45;;;;;;;;;;5020462;28;20046;-60
2022/01/27 13:23:34;;;;;;;23.70;16.65;;;;;;;;;;5020269;28;20061;-59
2022/01/27 13:26:00;;;;;;;34.30;19.83;;;;;;;;;;5019747;28;20502;-59
2022/01/27 13:28:32;;;;;;;28.40;19.25;;;;;;;;;;5018151;28;20075;-60
2022/01/27 13:31:08;;;;;;;27.15;19.08;;;;;;;;;;5016438;28;20060;-60
2022/01/27 13:33:36;;;;;;;28.77;19.52;;;;;;;;;;5018903;28;20044;-60
2022/01/27 13:36:03;;;;;;;31.85;19.63;;;;;;;;;;5020763;28;20026;-60
2022/01/27 13:38:39;;;;;;;30.65;19.17;;;;;;;;;;5023377;28;20033;-60
2022/01/27 13:41:16;;;;;;;32.45;18.80;;;;;;;;;;5023987;28;20512;-60
2022/01/27 13:44:02;;;;;;;35.35;19.15;;;;;;;;;;5024898;28;20171;-60
2022/01/27 13:46:33;;;;;;;24.02;17.92;;;;;;;;;;5020888;28;20108;-60
2022/01/27 13:49:18;;;;;;;40.78;19.15;;;;;;;;;;5019114;28;20037;-60
2022/01/27 13:51:50;;;;;;;28.58;17.45;;;;;;;;;;5020758;28;20037;-60
2022/01/27 13:54:15;;;;;;;29.10;17.98;;;;;;;;;;5021901;28;20457;-60
2022/01/27 13:56:41;;;;;;;32.75;17.70;;;;;;;;;;5025579;28;20029;-59
2022/01/27 13:59:11;;;;;;;22.13;16.30;;;;;;;;;;5025715;28;20029;-60
2022/01/27 14:01:39;;;;;;;24.83;16.20;;;;;;;;;;5033227;28;20426;-60
2022/01/27 14:04:05;;;;;;;28.10;17.55;;;;;;;;;;5025819;28;20385;-59
2022/01/27 14:06:31;;;;;;;28.85;16.67;;;;;;;;;;5029413;28;20092;-60
2022/01/27 14:08:58;;;;;;;23.20;16.75;;;;;;;;;;5023458;28;20654;-60
2022/01/27 14:11:55;;;;;;;26.80;16.50;;;;;;;;;;5027344;28;20120;-60
2022/01/27 14:14:41;;;;;;;27.05;15.57;;;;;;;;;;5022933;28;20095;-60
2022/01/27 14:17:21;;;;;;;29.30;16.23;;;;;;;;;;5029422;28;20041;-60
2022/01/27 14:19:47;;;;;;;28.50;15.48;;;;;;;;;;5023601;28;20140;-60
2022/01/27 14:22:16;;;;;;;22.48;14.65;;;;;;;;;;5020198;28;20228;-60
2022/01/27 14:25:10;;;;;;;22.58;15.48;;;;;;;;;;5025507;28;20048;-59
2022/01/27 14:27:44;;;;;;;27.90;14.55;;;;;;;;;;5025696;28;20399;-60
2022/01/27 14:30:13;;;;;;;27.02;14.85;;;;;;;;;;5026425;28;20472;-60
2022/01/27 14:32:41;;;;;;;31.92;14.98;;;;;;;;;;5021883;28;20022;-60
2022/01/27 14:35:12;;;;;;;28.30;15.18;;;;;;;;;;5026109;28;20382;-60
2022/01/27 14:37:39;;;;;;;24.90;14.90;;;;;;;;;;5022994;28;20546;-59
2022/01/27 14:40:09;;;;;;;29.55;16.00;;;;;;;;;;5021005;28;20156;-60
2022/01/27 14:42:36;;;;;;;27.30;15.48;;;;;;;;;;5018569;28;20112;-59
2022/01/27 14:45:05;;;;;;;24.67;14.88;;;;;;;;;;5023783;28;20597;-60
2022/01/27 14:47:31;;;;;;;28.15;14.63;;;;;;;;;;5021522;28;20056;-60
2022/01/27 14:49:57;;;;;;;23.80;15.45;;;;;;;;;;5019650;28;20030;-60
2022/01/27 14:52:27;;;;;;;26.48;16.80;;;;;;;;;;5024719;28;20037;-60
2022/01/27 14:54:53;;;;;;;27.33;15.55;;;;;;;;;;5019255;28;20029;-60
2022/01/27 14:57:19;;;;;;;25.77;16.38;;;;;;;;;;5027449;28;20036;-60
2022/01/27 14:59:45;;;;;;;39.03;17.38;;;;;;;;;;5024680;28;20033;-60
2022/01/27 15:02:11;;;;;;;35.28;18.75;;;;;;;;;;5021577;28;20076;-60
2022/01/27 15:04:36;;;;;;;33.85;17.63;;;;;;;;;;5019404;28;20033;-59
2022/01/27 15:07:03;;;;;;;24.17;16.90;;;;;;;;;;5021972;28;20063;-61
2022/01/27 15:09:30;;;;;;;27.88;15.88;;;;;;;;;;5028641;28;20108;-60
2022/01/27 15:11:56;;;;;;;24.55;15.93;;;;;;;;;;5024210;28;20029;-60
2022/01/27 15:19:51;;;;;;;24.13;14.77;;;;;;;;;;5017739;28;20483;-60
2022/01/27 15:22:17;;;;;;;23.17;14.80;;;;;;;;;;5020960;28;20040;-59
2022/01/27 15:24:45;;;;;;;22.30;14.07;;;;;;;;;;5027932;28;20037;-60
2022/01/27 15:27:11;;;;;;;25.15;14.00;;;;;;;;;;5022321;28;20065;-59
2022/01/27 15:29:39;;;;;;;28.98;14.40;;;;;;;;;;5021509;28;20052;-60
2022/01/27 15:32:07;;;;;;;25.30;14.85;;;;;;;;;;5027006;28;20071;-60